sensor_id;sensor_type;location;lat;lon;timestamp;temperature;humidity
42663;DHT22;44330;51.360;6.686;2023-03-01T00:01:13;0.80;99.90
42663;DHT22;44330;51.360;6.686;2023-03-01T00:03:39;0.80;58.90
42663;DHT22;44330;51.360;6.686;2023-03-01T00:06:06;0.80;28.00
42663;DHT22;44330;51.360;6.686;2023-03-01T00:08:32;0.80;99.90
42663;DHT22;44330;51.360;6.686;2023-03-01T00:13:30;0.80;99.90
42663;DHT22;44330;51.360;6.686;2023-03-01T00:15:55;0.70;99.90
42663;DHT22;44330;51.360;6.686;2023-03-01T00:18:21;0.70;98.10
42663;DHT22;44330;51.360;6.686;2023-03-01T00:20:54;0.60;99.90
42663;DHT22;44330;51.360;6.686;2023-03-01T00:23:21;0.60;99.90
42663;DHT22;44330;51.360;6.686;2023-03-01T00:25:46;0.60;1.00
42663;DHT22;44330;51.360;6.686;2023-03-01T00:28:12;0.70;99.90
42663;DHT22;44330;51.360;6.686;2023-03-01T00:30:38;0.70;1.00
42663;DHT22;44330;51.360;6.686;2023-03-01T00:33:03;0.60;1.00
42663;DHT22;44330;51.360;6.686;2023-03-01T00:35:29;0.60;59.30
42663;DHT22;44330;51.360;6.686;2023-03-01T00:37:56;0.60;99.90
42663;DHT22;44330;51.360;6.686;2023-03-01T00:40:27;0.60;98.10
42663;DHT22;44330;51.360;6.686;2023-03-01T00:42:54;0.60;99.90
42663;DHT22;44330;51.360;6.686;2023-03-01T00:45:20;0.60;99.90
42663;DHT22;44330;51.360;6.686;2023-03-01T00:47:45;0.60;99.90
42663;DHT22;44330;51.360;6.686;2023-03-01T00:50:11;0.60;1.00
42663;DHT22;44330;51.360;6.686;2023-03-01T00:52:37;0.50;99.90
42663;DHT22;44330;51.360;6.686;2023-03-01T00:55:04;0.60;99.90
42663;DHT22;44330;51.360;6.686;2023-03-01T00:57:30;0.50;1.00
42663;DHT22;44330;51.360;6.686;2023-03-01T00:59:56;0.40;99.90
42663;DHT22;44330;51.360;6.686;2023-03-01T01:02:21;0.50;99.90
42663;DHT22;44330;51.360;6.686;2023-03-01T01:04:47;0.40;1.00
42663;DHT22;44330;51.360;6.686;2023-03-01T01:07:13;0.40;1.00
42663;DHT22;44330;51.360;6.686;2023-03-01T01:09:39;0.40;31.80
42663;DHT22;44330;51.360;6.686;2023-03-01T01:12:05;0.40;90.50
42663;DHT22;44330;51.360;6.686;2023-03-01T01:14:31;0.40;99.90
42663;DHT22;44330;51.360;6.686;2023-03-01T01:16:57;0.40;99.90
42663;DHT22;44330;51.360;6.686;2023-03-01T01:19:23;0.30;99.90
42663;DHT22;44330;51.360;6.686;2023-03-01T01:21:49;0.30;99.90
42663;DHT22;44330;51.360;6.686;2023-03-01T01:24:15;0.30;99.90
42663;DHT22;44330;51.360;6.686;2023-03-01T01:26:41;0.30;99.90
42663;DHT22;44330;51.360;6.686;2023-03-01T01:29:07;0.30;99.90
42663;DHT22;44330;51.360;6.686;2023-03-01T01:31:34;0.30;99.90
42663;DHT22;44330;51.360;6.686;2023-03-01T01:34:01;0.20;99.90
42663;DHT22;44330;51.360;6.686;2023-03-01T01:36:27;0.20;99.90
42663;DHT22;44330;51.360;6.686;2023-03-01T01:38:53;0.10;99.90
42663;DHT22;44330;51.360;6.686;2023-03-01T01:41:20;0.10;99.90
42663;DHT22;44330;51.360;6.686;2023-03-01T01:46:46;0.10;99.90
42663;DHT22;44330;51.360;6.686;2023-03-01T01:49:41;0.10;99.90
42663;DHT22;44330;51.360;6.686;2023-03-01T01:52:21;0.10;99.90
42663;DHT22;44330;51.360;6.686;2023-03-01T01:55:08;0.10;1.00
42663;DHT22;44330;51.360;6.686;2023-03-01T01:57:55;0.00;1.00
42663;DHT22;44330;51.360;6.686;2023-03-01T02:00:27;0.00;1.00
42663;DHT22;44330;51.360;6.686;2023-03-01T02:02:57;-0.10;99.90
42663;DHT22;44330;51.360;6.686;2023-03-01T02:07:59;-0.10;1.00
42663;DHT22;44330;51.360;6.686;2023-03-01T02:10:26;-0.20;1.00
42663;DHT22;44330;51.360;6.686;2023-03-01T02:12:53;-0.20;1.00
42663;DHT22;44330;51.360;6.686;2023-03-01T02:15:19;-0.20;1.00
42663;DHT22;44330;51.360;6.686;2023-03-01T02:17:44;-0.20;1.00
42663;DHT22;44330;51.360;6.686;2023-03-01T02:22:43;-0.20;99.90
42663;DHT22;44330;51.360;6.686;2023-03-01T02:30:41;-0.30;1.00
42663;DHT22;44330;51.360;6.686;2023-03-01T02:33:27;-0.30;1.00
42663;DHT22;44330;51.360;6.686;2023-03-01T02:35:54;-0.30;1.00
42663;DHT22;44330;51.360;6.686;2023-03-01T02:38:21;-0.40;1.00
42663;DHT22;44330;51.360;6.686;2023-03-01T02:40:49;-0.40;1.00
42663;DHT22;44330;51.360;6.686;2023-03-01T02:43:16;-0.30;1.00
42663;DHT22;44330;51.360;6.686;2023-03-01T02:45:49;-0.20;1.00
42663;DHT22;44330;51.360;6.686;2023-03-01T02:48:15;-0.20;1.00
42663;DHT22;44330;51.360;6.686;2023-03-01T02:55:45;-0.30;1.00
42663;DHT22;44330;51.360;6.686;2023-03-01T02:58:11;-0.20;1.00
42663;DHT22;44330;51.360;6.686;2023-03-01T03:00:39;-0.20;1.00
42663;DHT22;44330;51.360;6.686;2023-03-01T03:03:13;-0.10;1.00
42663;DHT22;44330;51.360;6.686;2023-03-01T03:05:40;-0.20;1.00
42663;DHT22;44330;51.360;6.686;2023-03-01T03:08:05;-0.20;1.00
42663;DHT22;44330;51.360;6.686;2023-03-01T03:10:36;-0.20;1.00
42663;DHT22;44330;51.360;6.686;2023-03-01T03:13:08;-0.30;1.00
42663;DHT22;44330;51.360;6.686;2023-03-01T03:15:35;-0.30;1.00
42663;DHT22;44330;51.360;6.686;2023-03-01T03:18:06;-0.40;1.00
42663;DHT22;44330;51.360;6.686;2023-03-01T03:20:32;-0.40;1.00
42663;DHT22;44330;51.360;6.686;2023-03-01T03:22:58;-0.40;1.00
42663;DHT22;44330;51.360;6.686;2023-03-01T03:25:25;-0.50;1.00
42663;DHT22;44330;51.360;6.686;2023-03-01T03:27:51;-0.50;1.00
42663;DHT22;44330;51.360;6.686;2023-03-01T03:30:26;-0.50;1.00
42663;DHT22;44330;51.360;6.686;2023-03-01T03:32:53;-0.60;1.00
42663;DHT22;44330;51.360;6.686;2023-03-01T03:35:25;-0.50;1.00
42663;DHT22;44330;51.360;6.686;2023-03-01T03:37:51;-0.60;1.00
42663;DHT22;44330;51.360;6.686;2023-03-01T03:40:47;-0.60;1.00
42663;DHT22;44330;51.360;6.686;2023-03-01T03:43:19;-0.60;1.00
42663;DHT22;44330;51.360;6.686;2023-03-01T03:45:46;-0.70;1.00
42663;DHT22;44330;51.360;6.686;2023-03-01T03:48:12;-0.70;1.00
42663;DHT22;44330;51.360;6.686;2023-03-01T03:50:38;-0.70;1.00
42663;DHT22;44330;51.360;6.686;2023-03-01T03:53:08;-0.70;1.00
42663;DHT22;44330;51.360;6.686;2023-03-01T03:55:35;-0.70;1.00
42663;DHT22;44330;51.360;6.686;2023-03-01T03:58:02;-0.70;1.00
42663;DHT22;44330;51.360;6.686;2023-03-01T04:00:33;-0.70;1.00
42663;DHT22;44330;51.360;6.686;2023-03-01T04:02:59;-0.80;1.00
42663;DHT22;44330;51.360;6.686;2023-03-01T04:05:26;-0.80;1.00
42663;DHT22;44330;51.360;6.686;2023-03-01T04:07:52;-0.80;1.00
42663;DHT22;44330;51.360;6.686;2023-03-01T04:10:28;-0.80;1.00
42663;DHT22;44330;51.360;6.686;2023-03-01T04:12:54;-0.90;1.00
42663;DHT22;44330;51.360;6.686;2023-03-01T04:15:22;-0.90;1.00
42663;DHT22;44330;51.360;6.686;2023-03-01T04:17:50;-0.90;1.00
42663;DHT22;44330;51.360;6.686;2023-03-01T04:20:19;-0.90;1.00
42663;DHT22;44330;51.360;6.686;2023-03-01T04:22:51;-1.00;1.00
42663;DHT22;44330;51.360;6.686;2023-03-01T04:25:17;-1.00;1.00
42663;DHT22;44330;51.360;6.686;2023-03-01T04:27:43;-1.00;1.00
42663;DHT22;44330;51.360;6.686;2023-03-01T04:30:09;-1.00;1.00
42663;DHT22;44330;51.360;6.686;2023-03-01T04:32:35;-1.00;1.00
42663;DHT22;44330;51.360;6.686;2023-03-01T04:35:00;-0.90;1.00
42663;DHT22;44330;51.360;6.686;2023-03-01T04:37:26;-1.00;1.00
42663;DHT22;44330;51.360;6.686;2023-03-01T04:39:52;-1.10;1.00
42663;DHT22;44330;51.360;6.686;2023-03-01T04:42:18;-1.00;1.00
42663;DHT22;44330;51.360;6.686;2023-03-01T04:44:47;-0.90;1.00
42663;DHT22;44330;51.360;6.686;2023-03-01T04:47:12;-0.90;1.00
42663;DHT22;44330;51.360;6.686;2023-03-01T04:49:38;-0.90;1.00
42663;DHT22;44330;51.360;6.686;2023-03-01T04:52:04;-0.90;1.00
42663;DHT22;44330;51.360;6.686;2023-03-01T04:54:31;-1.00;1.00
42663;DHT22;44330;51.360;6.686;2023-03-01T04:56:57;-1.00;1.00
42663;DHT22;44330;51.360;6.686;2023-03-01T04:59:23;-1.00;1.00
42663;DHT22;44330;51.360;6.686;2023-03-01T05:01:52;-1.00;1.00
42663;DHT22;44330;51.360;6.686;2023-03-01T05:04:21;-0.90;1.00
42663;DHT22;44330;51.360;6.686;2023-03-01T05:06:47;-0.90;1.00
42663;DHT22;44330;51.360;6.686;2023-03-01T05:09:12;-1.00;1.00
42663;DHT22;44330;51.360;6.686;2023-03-01T05:11:41;-1.00;1.00
42663;DHT22;44330;51.360;6.686;2023-03-01T05:14:08;-1.00;1.00
42663;DHT22;44330;51.360;6.686;2023-03-01T05:16:34;-1.00;1.00
42663;DHT22;44330;51.360;6.686;2023-03-01T05:19:00;-1.00;1.00
42663;DHT22;44330;51.360;6.686;2023-03-01T05:21:26;-0.90;1.00
42663;DHT22;44330;51.360;6.686;2023-03-01T05:23:52;-0.90;1.00
42663;DHT22;44330;51.360;6.686;2023-03-01T05:26:18;-1.00;1.00
42663;DHT22;44330;51.360;6.686;2023-03-01T05:28:45;-0.90;1.00
42663;DHT22;44330;51.360;6.686;2023-03-01T05:31:10;-1.00;1.00
42663;DHT22;44330;51.360;6.686;2023-03-01T05:33:37;-1.00;1.00
42663;DHT22;44330;51.360;6.686;2023-03-01T05:36:04;-1.00;1.00
42663;DHT22;44330;51.360;6.686;2023-03-01T05:38:29;-1.00;1.00
42663;DHT22;44330;51.360;6.686;2023-03-01T05:40:55;-1.00;1.00
42663;DHT22;44330;51.360;6.686;2023-03-01T05:43:20;-1.00;1.00
42663;DHT22;44330;51.360;6.686;2023-03-01T05:45:46;-1.00;1.00
42663;DHT22;44330;51.360;6.686;2023-03-01T05:48:12;-1.00;1.00
42663;DHT22;44330;51.360;6.686;2023-03-01T05:50:44;-1.00;1.00
42663;DHT22;44330;51.360;6.686;2023-03-01T05:53:18;-1.00;1.00
42663;DHT22;44330;51.360;6.686;2023-03-01T05:55:46;-1.10;1.00
42663;DHT22;44330;51.360;6.686;2023-03-01T05:58:20;-1.20;1.00
42663;DHT22;44330;51.360;6.686;2023-03-01T06:00:47;-1.20;1.00
42663;DHT22;44330;51.360;6.686;2023-03-01T06:03:15;-1.20;1.00
42663;DHT22;44330;51.360;6.686;2023-03-01T06:05:41;-1.20;1.00
42663;DHT22;44330;51.360;6.686;2023-03-01T06:08:09;-1.20;1.00
42663;DHT22;44330;51.360;6.686;2023-03-01T06:10:35;-1.20;1.00
42663;DHT22;44330;51.360;6.686;2023-03-01T06:13:01;-1.20;1.00
42663;DHT22;44330;51.360;6.686;2023-03-01T06:15:26;-1.10;1.00
42663;DHT22;44330;51.360;6.686;2023-03-01T06:17:54;-0.90;1.00
42663;DHT22;44330;51.360;6.686;2023-03-01T06:20:24;-0.70;1.00
42663;DHT22;44330;51.360;6.686;2023-03-01T06:22:50;-0.70;1.00
42663;DHT22;44330;51.360;6.686;2023-03-01T06:25:18;-0.60;99.90
42663;DHT22;44330;51.360;6.686;2023-03-01T06:27:44;-0.70;1.00
42663;DHT22;44330;51.360;6.686;2023-03-01T06:30:12;-0.70;1.00
42663;DHT22;44330;51.360;6.686;2023-03-01T06:32:39;-0.70;1.00
42663;DHT22;44330;51.360;6.686;2023-03-01T06:35:13;-0.80;1.00
42663;DHT22;44330;51.360;6.686;2023-03-01T06:37:40;-0.90;1.00
42663;DHT22;44330;51.360;6.686;2023-03-01T06:40:07;-0.90;1.00
42663;DHT22;44330;51.360;6.686;2023-03-01T06:42:34;-1.00;1.00
42663;DHT22;44330;51.360;6.686;2023-03-01T06:45:01;-1.00;1.00
42663;DHT22;44330;51.360;6.686;2023-03-01T06:47:26;-1.00;1.00
42663;DHT22;44330;51.360;6.686;2023-03-01T06:49:52;-0.90;1.00
42663;DHT22;44330;51.360;6.686;2023-03-01T06:52:17;-0.90;1.00
42663;DHT22;44330;51.360;6.686;2023-03-01T06:54:43;-0.80;1.00
42663;DHT22;44330;51.360;6.686;2023-03-01T06:57:08;-0.80;1.00
42663;DHT22;44330;51.360;6.686;2023-03-01T06:59:34;-0.70;1.00
42663;DHT22;44330;51.360;6.686;2023-03-01T07:01:59;-0.70;1.00
42663;DHT22;44330;51.360;6.686;2023-03-01T07:04:25;-0.70;99.90
42663;DHT22;44330;51.360;6.686;2023-03-01T07:06:53;-0.60;99.90
42663;DHT22;44330;51.360;6.686;2023-03-01T07:09:21;-0.50;99.90
42663;DHT22;44330;51.360;6.686;2023-03-01T07:11:47;-0.50;99.90
42663;DHT22;44330;51.360;6.686;2023-03-01T07:14:13;-0.40;99.90
42663;DHT22;44330;51.360;6.686;2023-03-01T07:16:39;-0.30;99.90
42663;DHT22;44330;51.360;6.686;2023-03-01T07:19:04;-0.30;99.90
42663;DHT22;44330;51.360;6.686;2023-03-01T07:21:31;-0.30;99.90
42663;DHT22;44330;51.360;6.686;2023-03-01T07:23:56;-0.30;99.90
42663;DHT22;44330;51.360;6.686;2023-03-01T07:26:22;-0.20;97.40
42663;DHT22;44330;51.360;6.686;2023-03-01T07:28:48;-0.20;24.90
42663;DHT22;44330;51.360;6.686;2023-03-01T07:31:13;-0.20;75.10
42663;DHT22;44330;51.360;6.686;2023-03-01T07:33:39;-0.10;99.90
42663;DHT22;44330;51.360;6.686;2023-03-01T07:36:05;-0.10;99.90
42663;DHT22;44330;51.360;6.686;2023-03-01T07:38:32;-0.10;99.90
42663;DHT22;44330;51.360;6.686;2023-03-01T07:40:59;-0.10;3.20
42663;DHT22;44330;51.360;6.686;2023-03-01T07:43:25;-0.10;99.90
42663;DHT22;44330;51.360;6.686;2023-03-01T07:45:50;-0.20;99.90
42663;DHT22;44330;51.360;6.686;2023-03-01T07:48:16;-0.30;99.90
42663;DHT22;44330;51.360;6.686;2023-03-01T07:50:42;-0.20;99.90
42663;DHT22;44330;51.360;6.686;2023-03-01T07:53:09;-0.20;99.90
42663;DHT22;44330;51.360;6.686;2023-03-01T07:55:34;-0.10;99.90
42663;DHT22;44330;51.360;6.686;2023-03-01T07:58:00;0.10;99.90
42663;DHT22;44330;51.360;6.686;2023-03-01T08:00:25;0.20;99.90
42663;DHT22;44330;51.360;6.686;2023-03-01T08:02:51;0.50;99.90
42663;DHT22;44330;51.360;6.686;2023-03-01T08:05:16;0.60;99.90
42663;DHT22;44330;51.360;6.686;2023-03-01T08:07:42;0.80;1.00
42663;DHT22;44330;51.360;6.686;2023-03-01T08:10:08;1.00;99.90
42663;DHT22;44330;51.360;6.686;2023-03-01T08:12:34;1.20;99.90
42663;DHT22;44330;51.360;6.686;2023-03-01T08:15:00;1.50;99.90
42663;DHT22;44330;51.360;6.686;2023-03-01T08:17:25;1.70;99.90
42663;DHT22;44330;51.360;6.686;2023-03-01T08:19:51;1.90;1.00
42663;DHT22;44330;51.360;6.686;2023-03-01T08:22:16;2.10;72.40
42663;DHT22;44330;51.360;6.686;2023-03-01T08:24:42;2.30;1.00
42663;DHT22;44330;51.360;6.686;2023-03-01T08:27:07;2.40;1.00
42663;DHT22;44330;51.360;6.686;2023-03-01T08:29:34;2.60;99.90
42663;DHT22;44330;51.360;6.686;2023-03-01T08:32:00;2.70;99.90
42663;DHT22;44330;51.360;6.686;2023-03-01T08:34:25;2.70;99.90
42663;DHT22;44330;51.360;6.686;2023-03-01T08:36:51;2.90;99.90
42663;DHT22;44330;51.360;6.686;2023-03-01T08:39:19;3.20;22.20
42663;DHT22;44330;51.360;6.686;2023-03-01T08:41:45;3.40;1.00
42663;DHT22;44330;51.360;6.686;2023-03-01T08:44:12;3.60;1.00
42663;DHT22;44330;51.360;6.686;2023-03-01T08:46:40;3.60;99.90
42663;DHT22;44330;51.360;6.686;2023-03-01T08:49:16;3.60;99.90
42663;DHT22;44330;51.360;6.686;2023-03-01T08:51:43;3.70;99.90
42663;DHT22;44330;51.360;6.686;2023-03-01T08:54:11;3.80;99.90
42663;DHT22;44330;51.360;6.686;2023-03-01T08:56:38;4.00;99.90
42663;DHT22;44330;51.360;6.686;2023-03-01T08:59:04;4.20;99.90
42663;DHT22;44330;51.360;6.686;2023-03-01T09:01:30;4.40;99.90
42663;DHT22;44330;51.360;6.686;2023-03-01T09:03:55;4.30;99.90
42663;DHT22;44330;51.360;6.686;2023-03-01T09:06:21;4.30;99.90
42663;DHT22;44330;51.360;6.686;2023-03-01T09:08:48;4.30;99.90
42663;DHT22;44330;51.360;6.686;2023-03-01T09:11:20;4.60;86.90
42663;DHT22;44330;51.360;6.686;2023-03-01T09:13:47;4.70;51.10
42663;DHT22;44330;51.360;6.686;2023-03-01T09:16:14;4.80;29.10
42663;DHT22;44330;51.360;6.686;2023-03-01T09:18:40;5.00;1.00
42663;DHT22;44330;51.360;6.686;2023-03-01T09:21:09;5.00;1.00
42663;DHT22;44330;51.360;6.686;2023-03-01T09:23:39;5.10;1.00
42663;DHT22;44330;51.360;6.686;2023-03-01T09:26:06;5.30;1.00
42663;DHT22;44330;51.360;6.686;2023-03-01T09:28:32;5.30;1.00
42663;DHT22;44330;51.360;6.686;2023-03-01T09:30:59;5.70;1.00
42663;DHT22;44330;51.360;6.686;2023-03-01T09:33:25;6.00;99.90
42663;DHT22;44330;51.360;6.686;2023-03-01T09:35:56;6.00;99.90
42663;DHT22;44330;51.360;6.686;2023-03-01T09:38:22;6.10;99.90
42663;DHT22;44330;51.360;6.686;2023-03-01T09:40:47;6.10;99.90
42663;DHT22;44330;51.360;6.686;2023-03-01T09:46:08;6.20;99.90
42663;DHT22;44330;51.360;6.686;2023-03-01T09:48:46;6.30;99.90
42663;DHT22;44330;51.360;6.686;2023-03-01T09:51:38;6.00;99.90
42663;DHT22;44330;51.360;6.686;2023-03-01T09:54:03;5.90;99.90
42663;DHT22;44330;51.360;6.686;2023-03-01T09:57:13;6.00;99.90
42663;DHT22;44330;51.360;6.686;2023-03-01T10:05:37;6.50;99.90
42663;DHT22;44330;51.360;6.686;2023-03-01T10:13:56;7.00;99.90
42663;DHT22;44330;51.360;6.686;2023-03-01T10:19:03;7.10;99.90
42663;DHT22;44330;51.360;6.686;2023-03-01T10:21:30;7.20;99.90
42663;DHT22;44330;51.360;6.686;2023-03-01T10:24:09;7.30;99.90
42663;DHT22;44330;51.360;6.686;2023-03-01T10:26:44;7.40;99.90
42663;DHT22;44330;51.360;6.686;2023-03-01T10:29:12;7.40;99.90
42663;DHT22;44330;51.360;6.686;2023-03-01T10:31:50;7.50;99.90
42663;DHT22;44330;51.360;6.686;2023-03-01T10:34:18;7.70;99.90
42663;DHT22;44330;51.360;6.686;2023-03-01T10:36:48;8.00;99.90
42663;DHT22;44330;51.360;6.686;2023-03-01T10:39:19;8.30;99.90
42663;DHT22;44330;51.360;6.686;2023-03-01T10:42:04;8.20;99.90
42663;DHT22;44330;51.360;6.686;2023-03-01T10:44:45;7.90;99.90
42663;DHT22;44330;51.360;6.686;2023-03-01T10:47:17;7.60;99.90
42663;DHT22;44330;51.360;6.686;2023-03-01T10:49:59;7.80;99.90
42663;DHT22;44330;51.360;6.686;2023-03-01T10:52:58;7.30;99.90
42663;DHT22;44330;51.360;6.686;2023-03-01T10:55:39;7.40;99.90
42663;DHT22;44330;51.360;6.686;2023-03-01T10:58:18;7.80;99.90
42663;DHT22;44330;51.360;6.686;2023-03-01T11:00:58;7.90;99.90
42663;DHT22;44330;51.360;6.686;2023-03-01T11:03:31;8.10;99.90
42663;DHT22;44330;51.360;6.686;2023-03-01T11:06:01;8.30;99.90
42663;DHT22;44330;51.360;6.686;2023-03-01T11:11:43;8.20;94.60
42663;DHT22;44330;51.360;6.686;2023-03-01T11:14:16;8.10;94.60
42663;DHT22;44330;51.360;6.686;2023-03-01T11:16:45;8.40;93.20
42663;DHT22;44330;51.360;6.686;2023-03-01T11:21:43;8.90;80.30
42663;DHT22;44330;51.360;6.686;2023-03-01T11:24:14;9.00;71.40
42663;DHT22;44330;51.360;6.686;2023-03-01T11:26:44;8.90;59.10
42663;DHT22;44330;51.360;6.686;2023-03-01T11:29:35;8.80;63.10
42663;DHT22;44330;51.360;6.686;2023-03-01T11:32:06;9.00;58.20
42663;DHT22;44330;51.360;6.686;2023-03-01T11:34:48;9.30;55.40
42663;DHT22;44330;51.360;6.686;2023-03-01T11:37:39;9.30;38.60
42663;DHT22;44330;51.360;6.686;2023-03-01T11:40:13;9.20;34.70
42663;DHT22;44330;51.360;6.686;2023-03-01T11:45:12;8.80;30.70
42663;DHT22;44330;51.360;6.686;2023-03-01T11:50:35;8.70;26.80
42663;DHT22;44330;51.360;6.686;2023-03-01T11:58:27;8.10;23.60
42663;DHT22;44330;51.360;6.686;2023-03-01T12:03:47;7.30;24.00
42663;DHT22;44330;51.360;6.686;2023-03-01T12:09:30;7.20;33.20
42663;DHT22;44330;51.360;6.686;2023-03-01T12:12:02;7.50;33.20
42663;DHT22;44330;51.360;6.686;2023-03-01T12:14:37;7.30;26.60
42663;DHT22;44330;51.360;6.686;2023-03-01T12:19:59;7.40;26.50
42663;DHT22;44330;51.360;6.686;2023-03-01T12:22:33;7.60;28.00
42663;DHT22;44330;51.360;6.686;2023-03-01T12:25:33;7.60;21.60
42663;DHT22;44330;51.360;6.686;2023-03-01T12:28:31;7.40;28.00
42663;DHT22;44330;51.360;6.686;2023-03-01T12:35:03;7.80;30.30
42663;DHT22;44330;51.360;6.686;2023-03-01T12:42:44;7.90;29.30
42663;DHT22;44330;51.360;6.686;2023-03-01T12:49:06;7.50;18.20
42663;DHT22;44330;51.360;6.686;2023-03-01T12:51:10;7.40;24.20
42663;DHT22;44330;51.360;6.686;2023-03-01T12:53:49;7.60;22.80
42663;DHT22;44330;51.360;6.686;2023-03-01T12:56:22;7.60;21.40
42663;DHT22;44330;51.360;6.686;2023-03-01T13:01:56;7.70;24.20
42663;DHT22;44330;51.360;6.686;2023-03-01T13:04:45;7.60;16.10
42663;DHT22;44330;51.360;6.686;2023-03-01T13:07:23;7.50;18.00
42663;DHT22;44330;51.360;6.686;2023-03-01T13:10:14;7.60;17.20
42663;DHT22;44330;51.360;6.686;2023-03-01T13:17:52;7.60;20.00
42663;DHT22;44330;51.360;6.686;2023-03-01T13:20:20;7.70;23.50
42663;DHT22;44330;51.360;6.686;2023-03-01T13:22:47;7.60;29.30
42663;DHT22;44330;51.360;6.686;2023-03-01T13:25:19;7.80;29.10
42663;DHT22;44330;51.360;6.686;2023-03-01T13:27:48;7.90;21.50
42663;DHT22;44330;51.360;6.686;2023-03-01T13:35:56;7.80;19.70
42663;DHT22;44330;51.360;6.686;2023-03-01T13:41:09;7.60;18.70
42663;DHT22;44330;51.360;6.686;2023-03-01T13:43:37;7.70;18.40
42663;DHT22;44330;51.360;6.686;2023-03-01T13:46:20;8.00;20.50
42663;DHT22;44330;51.360;6.686;2023-03-01T13:48:53;7.90;15.20
42663;DHT22;44330;51.360;6.686;2023-03-01T13:51:24;7.80;20.70
42663;DHT22;44330;51.360;6.686;2023-03-01T13:53:51;7.90;18.80
42663;DHT22;44330;51.360;6.686;2023-03-01T13:56:33;8.00;15.60
42663;DHT22;44330;51.360;6.686;2023-03-01T13:59:13;7.90;16.90
42663;DHT22;44330;51.360;6.686;2023-03-01T14:01:40;7.70;12.80
42663;DHT22;44330;51.360;6.686;2023-03-01T14:06:44;7.90;19.40
42663;DHT22;44330;51.360;6.686;2023-03-01T14:14:39;7.70;15.60
42663;DHT22;44330;51.360;6.686;2023-03-01T14:17:42;7.80;13.50
42663;DHT22;44330;51.360;6.686;2023-03-01T14:20:16;8.00;16.90
42663;DHT22;44330;51.360;6.686;2023-03-01T14:22:43;8.20;13.70
42663;DHT22;44330;51.360;6.686;2023-03-01T14:25:26;8.50;18.90
42663;DHT22;44330;51.360;6.686;2023-03-01T14:27:57;8.60;19.80
42663;DHT22;44330;51.360;6.686;2023-03-01T14:30:24;8.70;15.20
42663;DHT22;44330;51.360;6.686;2023-03-01T14:32:58;8.60;14.40
42663;DHT22;44330;51.360;6.686;2023-03-01T14:35:28;8.10;10.40
42663;DHT22;44330;51.360;6.686;2023-03-01T14:37:53;8.00;15.90
42663;DHT22;44330;51.360;6.686;2023-03-01T14:40:22;7.80;11.50
42663;DHT22;44330;51.360;6.686;2023-03-01T14:42:49;7.60;13.70
42663;DHT22;44330;51.360;6.686;2023-03-01T14:45:15;7.70;13.30
42663;DHT22;44330;51.360;6.686;2023-03-01T14:47:43;7.50;10.50
42663;DHT22;44330;51.360;6.686;2023-03-01T14:50:29;7.40;12.70
42663;DHT22;44330;51.360;6.686;2023-03-01T14:52:58;7.40;16.70
42663;DHT22;44330;51.360;6.686;2023-03-01T14:57:53;8.20;15.00
42663;DHT22;44330;51.360;6.686;2023-03-01T15:00:21;8.50;13.80
42663;DHT22;44330;51.360;6.686;2023-03-01T15:02:48;8.50;12.40
42663;DHT22;44330;51.360;6.686;2023-03-01T15:05:15;7.90;10.50
42663;DHT22;44330;51.360;6.686;2023-03-01T15:07:44;7.70;11.60
42663;DHT22;44330;51.360;6.686;2023-03-01T15:10:26;7.80;12.10
42663;DHT22;44330;51.360;6.686;2023-03-01T15:12:52;8.00;9.40
42663;DHT22;44330;51.360;6.686;2023-03-01T15:15:43;8.10;13.10
42663;DHT22;44330;51.360;6.686;2023-03-01T15:18:19;8.10;11.10
42663;DHT22;44330;51.360;6.686;2023-03-01T15:20:47;7.80;8.30
42663;DHT22;44330;51.360;6.686;2023-03-01T15:25:47;7.80;13.00
42663;DHT22;44330;51.360;6.686;2023-03-01T15:28:20;7.90;7.30
42663;DHT22;44330;51.360;6.686;2023-03-01T15:30:56;8.20;10.50
42663;DHT22;44330;51.360;6.686;2023-03-01T15:35:52;8.40;7.70
42663;DHT22;44330;51.360;6.686;2023-03-01T15:38:55;8.40;10.80
42663;DHT22;44330;51.360;6.686;2023-03-01T15:41:31;8.10;16.30
42663;DHT22;44330;51.360;6.686;2023-03-01T15:44:16;8.10;12.10
42663;DHT22;44330;51.360;6.686;2023-03-01T15:46:46;7.90;12.60
42663;DHT22;44330;51.360;6.686;2023-03-01T15:49:41;7.70;16.10
42663;DHT22;44330;51.360;6.686;2023-03-01T15:52:17;7.60;18.20
42663;DHT22;44330;51.360;6.686;2023-03-01T15:54:43;7.60;15.00
42663;DHT22;44330;51.360;6.686;2023-03-01T15:57:14;7.40;12.80
42663;DHT22;44330;51.360;6.686;2023-03-01T15:59:40;7.30;15.50
42663;DHT22;44330;51.360;6.686;2023-03-01T16:02:10;7.30;17.80
42663;DHT22;44330;51.360;6.686;2023-03-01T16:04:38;7.30;18.00
42663;DHT22;44330;51.360;6.686;2023-03-01T16:07:03;7.20;18.00
42663;DHT22;44330;51.360;6.686;2023-03-01T16:09:29;7.10;15.60
42663;DHT22;44330;51.360;6.686;2023-03-01T16:11:54;7.10;16.50
42663;DHT22;44330;51.360;6.686;2023-03-01T16:14:20;7.20;18.30
42663;DHT22;44330;51.360;6.686;2023-03-01T16:16:47;7.10;17.70
42663;DHT22;44330;51.360;6.686;2023-03-01T16:19:16;6.80;19.10
42663;DHT22;44330;51.360;6.686;2023-03-01T16:21:42;6.80;19.00
42663;DHT22;44330;51.360;6.686;2023-03-01T16:24:12;6.80;20.50
42663;DHT22;44330;51.360;6.686;2023-03-01T16:26:38;6.90;18.50
42663;DHT22;44330;51.360;6.686;2023-03-01T16:29:04;6.90;20.40
42663;DHT22;44330;51.360;6.686;2023-03-01T16:31:30;6.80;21.00
42663;DHT22;44330;51.360;6.686;2023-03-01T16:33:57;6.80;19.60
42663;DHT22;44330;51.360;6.686;2023-03-01T16:36:24;6.70;24.80
42663;DHT22;44330;51.360;6.686;2023-03-01T16:38:51;6.80;22.70
42663;DHT22;44330;51.360;6.686;2023-03-01T16:41:18;6.70;27.30
42663;DHT22;44330;51.360;6.686;2023-03-01T16:43:45;6.60;23.00
42663;DHT22;44330;51.360;6.686;2023-03-01T16:46:17;6.50;26.30
42663;DHT22;44330;51.360;6.686;2023-03-01T16:48:43;6.40;22.60
42663;DHT22;44330;51.360;6.686;2023-03-01T16:51:09;6.30;22.10
42663;DHT22;44330;51.360;6.686;2023-03-01T16:53:35;6.30;24.50
42663;DHT22;44330;51.360;6.686;2023-03-01T16:56:02;6.30;23.70
42663;DHT22;44330;51.360;6.686;2023-03-01T16:58:29;6.20;23.90
42663;DHT22;44330;51.360;6.686;2023-03-01T17:00:55;6.10;24.80
42663;DHT22;44330;51.360;6.686;2023-03-01T17:03:23;6.00;25.10
42663;DHT22;44330;51.360;6.686;2023-03-01T17:05:49;5.90;25.00
42663;DHT22;44330;51.360;6.686;2023-03-01T17:08:15;6.00;25.60
42663;DHT22;44330;51.360;6.686;2023-03-01T17:10:41;5.90;24.40
42663;DHT22;44330;51.360;6.686;2023-03-01T17:13:08;5.80;25.50
42663;DHT22;44330;51.360;6.686;2023-03-01T17:15:34;5.80;25.70
42663;DHT22;44330;51.360;6.686;2023-03-01T17:18:00;5.80;28.10
42663;DHT22;44330;51.360;6.686;2023-03-01T17:20:26;5.70;29.80
42663;DHT22;44330;51.360;6.686;2023-03-01T17:22:52;5.60;27.80
42663;DHT22;44330;51.360;6.686;2023-03-01T17:25:18;5.60;29.50
42663;DHT22;44330;51.360;6.686;2023-03-01T17:27:43;5.60;32.40
42663;DHT22;44330;51.360;6.686;2023-03-01T17:30:11;5.60;32.70
42663;DHT22;44330;51.360;6.686;2023-03-01T17:32:37;5.60;38.20
42663;DHT22;44330;51.360;6.686;2023-03-01T17:35:03;5.60;36.30
42663;DHT22;44330;51.360;6.686;2023-03-01T17:37:29;5.60;38.90
42663;DHT22;44330;51.360;6.686;2023-03-01T17:39:54;5.60;40.20
42663;DHT22;44330;51.360;6.686;2023-03-01T17:42:20;5.50;41.50
42663;DHT22;44330;51.360;6.686;2023-03-01T17:44:48;5.50;41.70
42663;DHT22;44330;51.360;6.686;2023-03-01T17:47:14;5.60;43.40
42663;DHT22;44330;51.360;6.686;2023-03-01T17:49:39;5.50;44.80